Fire Weather Observation
Issued by NWS Grand Junction, CO

Home | Current Version | Previous Version | Graphics & Text | Print | Product List | Glossary On
Versions: 1 2 3 4 5 6 7 8 9 10 11 12 13 14 15 16 17 18 19 20 21 22 23 24 25 26 27 28 29 30 31 32
000
SHUS65 KGJT 192016
FWOGJT

DAILY FIRE WEATHER OBSERVATION
NATIONAL WEATHER SERVICE GRAND JUNCTION CO
212 PM MDT TUE JUL 19 2016

STATE OF THE WEATHER (W)               3
DRY BULB TEMPERATURE                   82   DEGREES FAHRENHEIT
RELATIVE HUMIDITY (RH)                 40   PERCENT
LIGHTNING ACTIVITY LEVEL
  (LAL - MIDNIGHT TO 2 PM)             3
WIND DIRECTION                         270  DEGREES (C IF CALM)
WIND SPEED                             7    MPH
MAX TEMP (2 PM - 2 PM)                 93   DEGREES FAHRENHEIT
MIN TEMP (2 PM - 2 PM)                 65   DEGREES FAHRENHEIT
MAX RH (2 PM - 2 PM)                   87   PERCENT
MIN RH (2 PM - 2 PM)                   21   PERCENT
PCPN DURATION                          4.4  HOURS
PCPN AMT (2 PM - 2 PM)                 0.04 INCHES
LAL (2 PM - 2 PM)                      5

$$

METAR KGJT 191953Z 27006KT 10SM VCTS SCT100 28/13 A3027 RMK AO2
      LTG DSNT SW SLP178 CB ALQDS VCSH T02780128



USA.gov is the U.S. government's official web portal to all federal, state and local government web resources and services.